sensor_id;sensor_type;location;lat;lon;timestamp;P1;durP1;ratioP1;P2;durP2;ratioP2
15449;SDS011;7826;49.784;9.934;2023-09-19T00:00:43;3.43;;;2.10;;
15449;SDS011;7826;49.784;9.934;2023-09-19T00:03:10;3.93;;;2.50;;
15449;SDS011;7826;49.784;9.934;2023-09-19T00:05:37;4.73;;;2.20;;
15449;SDS011;7826;49.784;9.934;2023-09-19T00:08:05;2.83;;;2.50;;
15449;SDS011;7826;49.784;9.934;2023-09-19T00:10:32;3.33;;;2.10;;
15449;SDS011;7826;49.784;9.934;2023-09-19T00:13:01;2.97;;;2.60;;
15449;SDS011;7826;49.784;9.934;2023-09-19T00:15:37;5.00;;;2.20;;
15449;SDS011;7826;49.784;9.934;2023-09-19T00:18:05;4.50;;;2.70;;
15449;SDS011;7826;49.784;9.934;2023-09-19T00:20:32;4.10;;;2.60;;
15449;SDS011;7826;49.784;9.934;2023-09-19T00:23:01;3.20;;;2.50;;
15449;SDS011;7826;49.784;9.934;2023-09-19T00:25:35;3.37;;;2.20;;
15449;SDS011;7826;49.784;9.934;2023-09-19T00:28:05;2.60;;;2.40;;
15449;SDS011;7826;49.784;9.934;2023-09-19T00:30:36;3.33;;;2.37;;
15449;SDS011;7826;49.784;9.934;2023-09-19T00:33:04;2.47;;;2.27;;
15449;SDS011;7826;49.784;9.934;2023-09-19T00:35:33;4.60;;;2.57;;
15449;SDS011;7826;49.784;9.934;2023-09-19T00:38:00;3.30;;;2.00;;
15449;SDS011;7826;49.784;9.934;2023-09-19T00:40:27;2.87;;;2.30;;
15449;SDS011;7826;49.784;9.934;2023-09-19T00:42:57;4.43;;;2.13;;
15449;SDS011;7826;49.784;9.934;2023-09-19T00:45:25;2.87;;;2.23;;
15449;SDS011;7826;49.784;9.934;2023-09-19T00:47:52;5.33;;;2.30;;
15449;SDS011;7826;49.784;9.934;2023-09-19T00:50:19;2.23;;;2.00;;
15449;SDS011;7826;49.784;9.934;2023-09-19T00:52:50;3.83;;;2.30;;
15449;SDS011;7826;49.784;9.934;2023-09-19T00:55:21;3.23;;;2.00;;
15449;SDS011;7826;49.784;9.934;2023-09-19T00:57:49;3.27;;;2.10;;
15449;SDS011;7826;49.784;9.934;2023-09-19T01:00:16;3.10;;;2.13;;
15449;SDS011;7826;49.784;9.934;2023-09-19T01:02:45;3.33;;;2.10;;
15449;SDS011;7826;49.784;9.934;2023-09-19T01:05:13;2.27;;;2.07;;
15449;SDS011;7826;49.784;9.934;2023-09-19T01:07:39;4.77;;;2.23;;
15449;SDS011;7826;49.784;9.934;2023-09-19T01:10:14;3.33;;;2.00;;
15449;SDS011;7826;49.784;9.934;2023-09-19T01:12:49;3.07;;;2.40;;
15449;SDS011;7826;49.784;9.934;2023-09-19T01:17:59;2.23;;;2.10;;
15449;SDS011;7826;49.784;9.934;2023-09-19T01:32:05;4.87;;;2.23;;
15449;SDS011;7826;49.784;9.934;2023-09-19T01:37:16;4.03;;;2.10;;
15449;SDS011;7826;49.784;9.934;2023-09-19T01:39:49;2.30;;;2.10;;
15449;SDS011;7826;49.784;9.934;2023-09-19T01:47:49;2.60;;;2.13;;
15449;SDS011;7826;49.784;9.934;2023-09-19T01:53:07;3.03;;;2.10;;
15449;SDS011;7826;49.784;9.934;2023-09-19T01:55:42;2.27;;;2.07;;
15449;SDS011;7826;49.784;9.934;2023-09-19T01:58:24;2.40;;;2.17;;
15449;SDS011;7826;49.784;9.934;2023-09-19T02:00:58;2.37;;;2.17;;
15449;SDS011;7826;49.784;9.934;2023-09-19T02:03:26;2.50;;;2.10;;
15449;SDS011;7826;49.784;9.934;2023-09-19T02:05:54;4.00;;;2.20;;
15449;SDS011;7826;49.784;9.934;2023-09-19T02:08:22;4.93;;;2.30;;
15449;SDS011;7826;49.784;9.934;2023-09-19T02:10:52;4.30;;;2.17;;
15449;SDS011;7826;49.784;9.934;2023-09-19T02:13:19;3.90;;;2.50;;
15449;SDS011;7826;49.784;9.934;2023-09-19T02:15:46;2.50;;;2.17;;
15449;SDS011;7826;49.784;9.934;2023-09-19T02:18:13;2.80;;;2.50;;
15449;SDS011;7826;49.784;9.934;2023-09-19T02:20:40;3.83;;;2.00;;
15449;SDS011;7826;49.784;9.934;2023-09-19T02:23:07;2.63;;;2.43;;
15449;SDS011;7826;49.784;9.934;2023-09-19T02:25:34;3.07;;;1.97;;
15449;SDS011;7826;49.784;9.934;2023-09-19T02:28:06;5.63;;;2.40;;
15449;SDS011;7826;49.784;9.934;2023-09-19T02:30:35;2.47;;;1.97;;
15449;SDS011;7826;49.784;9.934;2023-09-19T02:33:03;3.23;;;1.80;;
15449;SDS011;7826;49.784;9.934;2023-09-19T02:35:31;2.30;;;2.13;;
15449;SDS011;7826;49.784;9.934;2023-09-19T02:38:01;3.77;;;2.33;;
15449;SDS011;7826;49.784;9.934;2023-09-19T02:40:32;2.87;;;2.10;;
15449;SDS011;7826;49.784;9.934;2023-09-19T02:43:01;4.37;;;2.50;;
15449;SDS011;7826;49.784;9.934;2023-09-19T02:45:29;3.00;;;2.10;;
15449;SDS011;7826;49.784;9.934;2023-09-19T02:47:56;3.53;;;2.30;;
15449;SDS011;7826;49.784;9.934;2023-09-19T02:50:23;2.10;;;1.90;;
15449;SDS011;7826;49.784;9.934;2023-09-19T02:52:50;5.00;;;2.13;;
15449;SDS011;7826;49.784;9.934;2023-09-19T02:55:17;2.97;;;2.20;;
15449;SDS011;7826;49.784;9.934;2023-09-19T02:57:46;2.83;;;1.97;;
15449;SDS011;7826;49.784;9.934;2023-09-19T03:00:14;3.50;;;2.00;;
15449;SDS011;7826;49.784;9.934;2023-09-19T03:02:41;2.00;;;1.60;;
15449;SDS011;7826;49.784;9.934;2023-09-19T03:05:07;3.17;;;2.13;;
15449;SDS011;7826;49.784;9.934;2023-09-19T03:07:36;2.00;;;1.80;;
15449;SDS011;7826;49.784;9.934;2023-09-19T03:10:05;1.60;;;1.50;;
15449;SDS011;7826;49.784;9.934;2023-09-19T03:12:33;1.70;;;1.60;;
15449;SDS011;7826;49.784;9.934;2023-09-19T03:15:00;2.27;;;1.40;;
15449;SDS011;7826;49.784;9.934;2023-09-19T03:17:27;1.63;;;1.53;;
15449;SDS011;7826;49.784;9.934;2023-09-19T03:19:54;1.67;;;1.57;;
15449;SDS011;7826;49.784;9.934;2023-09-19T03:22:20;3.73;;;1.87;;
15449;SDS011;7826;49.784;9.934;2023-09-19T03:25:05;2.60;;;1.70;;
15449;SDS011;7826;49.784;9.934;2023-09-19T03:27:34;1.80;;;1.63;;
15449;SDS011;7826;49.784;9.934;2023-09-19T03:30:01;2.60;;;1.73;;
15449;SDS011;7826;49.784;9.934;2023-09-19T03:32:33;2.27;;;1.80;;
15449;SDS011;7826;49.784;9.934;2023-09-19T03:35:00;1.73;;;1.57;;
15449;SDS011;7826;49.784;9.934;2023-09-19T03:37:27;1.77;;;1.60;;
15449;SDS011;7826;49.784;9.934;2023-09-19T03:39:54;1.60;;;1.50;;
15449;SDS011;7826;49.784;9.934;2023-09-19T03:42:21;1.60;;;1.50;;
15449;SDS011;7826;49.784;9.934;2023-09-19T03:44:51;2.90;;;1.50;;
15449;SDS011;7826;49.784;9.934;2023-09-19T03:47:18;1.63;;;1.47;;
15449;SDS011;7826;49.784;9.934;2023-09-19T03:49:47;1.57;;;1.43;;
15449;SDS011;7826;49.784;9.934;2023-09-19T03:52:14;1.90;;;1.43;;
15449;SDS011;7826;49.784;9.934;2023-09-19T03:54:43;3.07;;;1.80;;
15449;SDS011;7826;49.784;9.934;2023-09-19T03:57:11;2.27;;;1.40;;
15449;SDS011;7826;49.784;9.934;2023-09-19T03:59:41;5.33;;;1.80;;
15449;SDS011;7826;49.784;9.934;2023-09-19T04:02:11;3.93;;;1.50;;
15449;SDS011;7826;49.784;9.934;2023-09-19T04:04:48;2.90;;;1.33;;
15449;SDS011;7826;49.784;9.934;2023-09-19T04:07:15;1.37;;;1.27;;
15449;SDS011;7826;49.784;9.934;2023-09-19T04:09:48;2.30;;;1.70;;
15449;SDS011;7826;49.784;9.934;2023-09-19T04:12:26;2.20;;;1.40;;
15449;SDS011;7826;49.784;9.934;2023-09-19T04:14:53;2.10;;;1.87;;
15449;SDS011;7826;49.784;9.934;2023-09-19T04:17:20;1.67;;;1.57;;
15449;SDS011;7826;49.784;9.934;2023-09-19T04:19:47;2.40;;;1.70;;
15449;SDS011;7826;49.784;9.934;2023-09-19T04:22:13;1.67;;;1.50;;
15449;SDS011;7826;49.784;9.934;2023-09-19T04:24:40;2.50;;;1.60;;
15449;SDS011;7826;49.784;9.934;2023-09-19T04:27:07;2.47;;;1.43;;
15449;SDS011;7826;49.784;9.934;2023-09-19T04:29:35;6.33;;;1.80;;
15449;SDS011;7826;49.784;9.934;2023-09-19T04:32:03;1.60;;;1.50;;
15449;SDS011;7826;49.784;9.934;2023-09-19T04:34:30;2.17;;;1.97;;
15449;SDS011;7826;49.784;9.934;2023-09-19T04:36:57;2.20;;;1.43;;
15449;SDS011;7826;49.784;9.934;2023-09-19T04:39:26;3.53;;;1.77;;
15449;SDS011;7826;49.784;9.934;2023-09-19T04:41:53;2.37;;;1.70;;
15449;SDS011;7826;49.784;9.934;2023-09-19T04:44:20;1.97;;;1.73;;
15449;SDS011;7826;49.784;9.934;2023-09-19T04:46:47;2.97;;;1.67;;
15449;SDS011;7826;49.784;9.934;2023-09-19T04:49:14;2.07;;;1.90;;
15449;SDS011;7826;49.784;9.934;2023-09-19T04:51:40;2.40;;;1.70;;
15449;SDS011;7826;49.784;9.934;2023-09-19T04:54:08;2.30;;;1.90;;
15449;SDS011;7826;49.784;9.934;2023-09-19T04:56:35;2.53;;;1.73;;
15449;SDS011;7826;49.784;9.934;2023-09-19T04:59:02;2.30;;;2.10;;
15449;SDS011;7826;49.784;9.934;2023-09-19T05:01:28;2.20;;;2.00;;
15449;SDS011;7826;49.784;9.934;2023-09-19T05:03:55;3.73;;;1.40;;
15449;SDS011;7826;49.784;9.934;2023-09-19T05:06:22;1.83;;;1.53;;
15449;SDS011;7826;49.784;9.934;2023-09-19T05:08:49;2.17;;;1.77;;
15449;SDS011;7826;49.784;9.934;2023-09-19T05:11:19;3.10;;;2.07;;
15449;SDS011;7826;49.784;9.934;2023-09-19T05:13:48;2.37;;;1.70;;
15449;SDS011;7826;49.784;9.934;2023-09-19T05:16:19;2.53;;;1.70;;
15449;SDS011;7826;49.784;9.934;2023-09-19T05:18:45;2.63;;;1.70;;
15449;SDS011;7826;49.784;9.934;2023-09-19T05:21:13;4.20;;;1.90;;
15449;SDS011;7826;49.784;9.934;2023-09-19T05:23:39;3.83;;;1.80;;
15449;SDS011;7826;49.784;9.934;2023-09-19T05:26:07;3.10;;;2.03;;
15449;SDS011;7826;49.784;9.934;2023-09-19T05:28:33;2.70;;;1.80;;
15449;SDS011;7826;49.784;9.934;2023-09-19T05:31:01;2.90;;;2.10;;
15449;SDS011;7826;49.784;9.934;2023-09-19T05:33:30;2.87;;;2.10;;
15449;SDS011;7826;49.784;9.934;2023-09-19T05:35:58;2.77;;;1.83;;
15449;SDS011;7826;49.784;9.934;2023-09-19T05:38:24;4.50;;;2.20;;
15449;SDS011;7826;49.784;9.934;2023-09-19T05:40:53;2.53;;;2.00;;
15449;SDS011;7826;49.784;9.934;2023-09-19T05:43:20;3.53;;;2.30;;
15449;SDS011;7826;49.784;9.934;2023-09-19T05:45:46;4.13;;;2.10;;
15449;SDS011;7826;49.784;9.934;2023-09-19T05:48:14;2.30;;;2.10;;
15449;SDS011;7826;49.784;9.934;2023-09-19T05:50:42;3.83;;;2.00;;
15449;SDS011;7826;49.784;9.934;2023-09-19T05:53:09;4.83;;;2.43;;
15449;SDS011;7826;49.784;9.934;2023-09-19T05:55:38;2.23;;;2.03;;
15449;SDS011;7826;49.784;9.934;2023-09-19T05:58:05;4.87;;;2.00;;
15449;SDS011;7826;49.784;9.934;2023-09-19T06:00:32;5.43;;;2.30;;
15449;SDS011;7826;49.784;9.934;2023-09-19T06:02:59;3.60;;;2.40;;
15449;SDS011;7826;49.784;9.934;2023-09-19T06:05:26;3.43;;;2.30;;
15449;SDS011;7826;49.784;9.934;2023-09-19T06:07:53;2.97;;;2.20;;
15449;SDS011;7826;49.784;9.934;2023-09-19T06:10:20;2.60;;;2.00;;
15449;SDS011;7826;49.784;9.934;2023-09-19T06:12:49;3.50;;;2.40;;
15449;SDS011;7826;49.784;9.934;2023-09-19T06:15:16;3.27;;;2.23;;
15449;SDS011;7826;49.784;9.934;2023-09-19T06:17:53;4.43;;;2.43;;
15449;SDS011;7826;49.784;9.934;2023-09-19T06:20:21;2.80;;;2.10;;
15449;SDS011;7826;49.784;9.934;2023-09-19T06:22:49;3.53;;;2.40;;
15449;SDS011;7826;49.784;9.934;2023-09-19T06:25:16;2.77;;;2.30;;
15449;SDS011;7826;49.784;9.934;2023-09-19T06:27:46;3.03;;;2.43;;
15449;SDS011;7826;49.784;9.934;2023-09-19T06:30:20;2.87;;;2.23;;
15449;SDS011;7826;49.784;9.934;2023-09-19T06:32:48;5.03;;;2.50;;
15449;SDS011;7826;49.784;9.934;2023-09-19T06:35:15;3.20;;;2.30;;
15449;SDS011;7826;49.784;9.934;2023-09-19T06:37:43;2.60;;;2.40;;
15449;SDS011;7826;49.784;9.934;2023-09-19T06:40:10;3.00;;;2.60;;
15449;SDS011;7826;49.784;9.934;2023-09-19T06:42:41;3.43;;;2.40;;
15449;SDS011;7826;49.784;9.934;2023-09-19T06:45:08;3.17;;;2.33;;
15449;SDS011;7826;49.784;9.934;2023-09-19T06:47:37;3.27;;;2.53;;
15449;SDS011;7826;49.784;9.934;2023-09-19T06:50:04;5.03;;;2.53;;
15449;SDS011;7826;49.784;9.934;2023-09-19T06:52:32;3.83;;;2.63;;
15449;SDS011;7826;49.784;9.934;2023-09-19T06:54:59;4.03;;;2.57;;
15449;SDS011;7826;49.784;9.934;2023-09-19T06:57:25;3.33;;;2.30;;
15449;SDS011;7826;49.784;9.934;2023-09-19T06:59:52;3.47;;;2.60;;
15449;SDS011;7826;49.784;9.934;2023-09-19T07:02:19;3.87;;;2.47;;
15449;SDS011;7826;49.784;9.934;2023-09-19T07:04:48;4.80;;;2.67;;
15449;SDS011;7826;49.784;9.934;2023-09-19T07:07:15;2.70;;;2.50;;
15449;SDS011;7826;49.784;9.934;2023-09-19T07:09:42;3.63;;;2.50;;
15449;SDS011;7826;49.784;9.934;2023-09-19T07:12:09;3.57;;;2.73;;
15449;SDS011;7826;49.784;9.934;2023-09-19T07:14:35;3.93;;;2.77;;
15449;SDS011;7826;49.784;9.934;2023-09-19T07:17:02;5.43;;;2.40;;
15449;SDS011;7826;49.784;9.934;2023-09-19T07:19:29;3.27;;;2.63;;
15449;SDS011;7826;49.784;9.934;2023-09-19T07:21:57;4.53;;;2.50;;
15449;SDS011;7826;49.784;9.934;2023-09-19T07:24:25;4.20;;;2.73;;
15449;SDS011;7826;49.784;9.934;2023-09-19T07:26:53;4.03;;;2.57;;
15449;SDS011;7826;49.784;9.934;2023-09-19T07:29:20;3.67;;;2.50;;
15449;SDS011;7826;49.784;9.934;2023-09-19T07:31:46;5.47;;;2.57;;
15449;SDS011;7826;49.784;9.934;2023-09-19T07:34:13;4.53;;;2.70;;
15449;SDS011;7826;49.784;9.934;2023-09-19T07:36:40;5.60;;;2.73;;
15449;SDS011;7826;49.784;9.934;2023-09-19T07:39:07;4.30;;;2.67;;
15449;SDS011;7826;49.784;9.934;2023-09-19T07:41:34;4.70;;;2.80;;
15449;SDS011;7826;49.784;9.934;2023-09-19T07:44:00;3.93;;;2.70;;
15449;SDS011;7826;49.784;9.934;2023-09-19T07:46:27;4.90;;;2.97;;
15449;SDS011;7826;49.784;9.934;2023-09-19T07:48:54;4.70;;;3.00;;
15449;SDS011;7826;49.784;9.934;2023-09-19T07:51:21;3.80;;;2.67;;
15449;SDS011;7826;49.784;9.934;2023-09-19T07:53:47;3.23;;;2.63;;
15449;SDS011;7826;49.784;9.934;2023-09-19T07:56:14;4.57;;;2.90;;
15449;SDS011;7826;49.784;9.934;2023-09-19T07:58:41;3.40;;;2.83;;
15449;SDS011;7826;49.784;9.934;2023-09-19T08:01:10;3.80;;;2.87;;
15449;SDS011;7826;49.784;9.934;2023-09-19T08:03:39;4.83;;;2.80;;
15449;SDS011;7826;49.784;9.934;2023-09-19T08:06:08;5.17;;;2.30;;
15449;SDS011;7826;49.784;9.934;2023-09-19T08:08:35;5.87;;;2.67;;
15449;SDS011;7826;49.784;9.934;2023-09-19T08:11:06;5.23;;;2.50;;
15449;SDS011;7826;49.784;9.934;2023-09-19T08:13:41;4.97;;;3.07;;
15449;SDS011;7826;49.784;9.934;2023-09-19T08:16:12;4.30;;;2.60;;
15449;SDS011;7826;49.784;9.934;2023-09-19T08:18:41;3.37;;;2.73;;
15449;SDS011;7826;49.784;9.934;2023-09-19T08:21:08;3.60;;;2.67;;
15449;SDS011;7826;49.784;9.934;2023-09-19T08:23:37;3.30;;;3.00;;
15449;SDS011;7826;49.784;9.934;2023-09-19T08:26:08;3.80;;;2.87;;
15449;SDS011;7826;49.784;9.934;2023-09-19T08:28:37;4.30;;;2.80;;
15449;SDS011;7826;49.784;9.934;2023-09-19T08:31:07;4.57;;;2.40;;
15449;SDS011;7826;49.784;9.934;2023-09-19T08:33:37;4.63;;;3.10;;
15449;SDS011;7826;49.784;9.934;2023-09-19T08:36:06;4.83;;;2.90;;
15449;SDS011;7826;49.784;9.934;2023-09-19T08:38:37;3.87;;;2.77;;
15449;SDS011;7826;49.784;9.934;2023-09-19T08:41:07;4.63;;;3.53;;
15449;SDS011;7826;49.784;9.934;2023-09-19T08:43:34;7.80;;;2.97;;
15449;SDS011;7826;49.784;9.934;2023-09-19T08:48:32;5.30;;;3.30;;
15449;SDS011;7826;49.784;9.934;2023-09-19T08:51:06;9.00;;;3.73;;
15449;SDS011;7826;49.784;9.934;2023-09-19T08:56:45;3.83;;;2.73;;
15449;SDS011;7826;49.784;9.934;2023-09-19T08:59:13;6.27;;;3.00;;
15449;SDS011;7826;49.784;9.934;2023-09-19T09:01:41;4.27;;;2.37;;
15449;SDS011;7826;49.784;9.934;2023-09-19T09:04:08;6.17;;;2.47;;
15449;SDS011;7826;49.784;9.934;2023-09-19T09:06:38;6.93;;;2.80;;
15449;SDS011;7826;49.784;9.934;2023-09-19T09:09:07;4.20;;;2.30;;
15449;SDS011;7826;49.784;9.934;2023-09-19T09:11:35;5.10;;;2.90;;
15449;SDS011;7826;49.784;9.934;2023-09-19T09:14:06;4.47;;;2.80;;
15449;SDS011;7826;49.784;9.934;2023-09-19T09:16:35;5.73;;;2.60;;
15449;SDS011;7826;49.784;9.934;2023-09-19T09:19:02;6.53;;;2.60;;
15449;SDS011;7826;49.784;9.934;2023-09-19T09:21:29;4.40;;;2.80;;
15449;SDS011;7826;49.784;9.934;2023-09-19T09:23:55;3.60;;;2.70;;
15449;SDS011;7826;49.784;9.934;2023-09-19T09:26:41;7.27;;;3.03;;
15449;SDS011;7826;49.784;9.934;2023-09-19T09:29:12;7.70;;;3.07;;
15449;SDS011;7826;49.784;9.934;2023-09-19T09:31:39;5.77;;;3.10;;
15449;SDS011;7826;49.784;9.934;2023-09-19T09:34:07;6.53;;;2.83;;
15449;SDS011;7826;49.784;9.934;2023-09-19T09:36:39;5.70;;;2.73;;
15449;SDS011;7826;49.784;9.934;2023-09-19T09:39:07;5.13;;;2.67;;
15449;SDS011;7826;49.784;9.934;2023-09-19T09:41:51;5.30;;;3.00;;
15449;SDS011;7826;49.784;9.934;2023-09-19T09:44:19;5.97;;;2.90;;
15449;SDS011;7826;49.784;9.934;2023-09-19T09:46:47;4.70;;;2.83;;
15449;SDS011;7826;49.784;9.934;2023-09-19T09:49:23;5.03;;;2.80;;
15449;SDS011;7826;49.784;9.934;2023-09-19T09:52:05;5.40;;;2.93;;
15449;SDS011;7826;49.784;9.934;2023-09-19T09:54:35;6.00;;;2.83;;
15449;SDS011;7826;49.784;9.934;2023-09-19T09:57:06;9.17;;;3.27;;
15449;SDS011;7826;49.784;9.934;2023-09-19T09:59:46;4.73;;;3.00;;
15449;SDS011;7826;49.784;9.934;2023-09-19T10:02:17;6.17;;;2.90;;
15449;SDS011;7826;49.784;9.934;2023-09-19T10:04:51;5.10;;;2.90;;
15449;SDS011;7826;49.784;9.934;2023-09-19T10:07:39;6.20;;;2.83;;
15449;SDS011;7826;49.784;9.934;2023-09-19T10:10:15;3.73;;;2.80;;
15449;SDS011;7826;49.784;9.934;2023-09-19T10:12:55;6.47;;;2.70;;
15449;SDS011;7826;49.784;9.934;2023-09-19T10:15:29;6.90;;;3.13;;
15449;SDS011;7826;49.784;9.934;2023-09-19T10:18:00;6.80;;;2.93;;
15449;SDS011;7826;49.784;9.934;2023-09-19T10:20:30;4.20;;;2.77;;
15449;SDS011;7826;49.784;9.934;2023-09-19T10:23:03;3.40;;;2.40;;
15449;SDS011;7826;49.784;9.934;2023-09-19T10:25:39;4.33;;;2.40;;
15449;SDS011;7826;49.784;9.934;2023-09-19T10:28:09;4.73;;;2.60;;
15449;SDS011;7826;49.784;9.934;2023-09-19T10:30:38;6.20;;;2.97;;
15449;SDS011;7826;49.784;9.934;2023-09-19T10:33:11;4.90;;;2.27;;
15449;SDS011;7826;49.784;9.934;2023-09-19T10:35:43;4.47;;;2.93;;
15449;SDS011;7826;49.784;9.934;2023-09-19T10:38:11;6.17;;;2.60;;
15449;SDS011;7826;49.784;9.934;2023-09-19T10:40:40;5.83;;;2.60;;
15449;SDS011;7826;49.784;9.934;2023-09-19T10:43:13;6.40;;;2.53;;
15449;SDS011;7826;49.784;9.934;2023-09-19T10:45:46;4.57;;;2.60;;
15449;SDS011;7826;49.784;9.934;2023-09-19T10:48:16;5.00;;;2.40;;
15449;SDS011;7826;49.784;9.934;2023-09-19T10:50:46;7.17;;;2.70;;
15449;SDS011;7826;49.784;9.934;2023-09-19T10:53:18;5.97;;;2.57;;
15449;SDS011;7826;49.784;9.934;2023-09-19T10:56:05;6.53;;;2.80;;
15449;SDS011;7826;49.784;9.934;2023-09-19T10:58:36;4.23;;;2.40;;
15449;SDS011;7826;49.784;9.934;2023-09-19T11:01:05;4.00;;;2.20;;
15449;SDS011;7826;49.784;9.934;2023-09-19T11:03:33;4.03;;;2.20;;
15449;SDS011;7826;49.784;9.934;2023-09-19T11:06:03;5.47;;;2.10;;
15449;SDS011;7826;49.784;9.934;2023-09-19T11:11:42;4.03;;;2.10;;
15449;SDS011;7826;49.784;9.934;2023-09-19T11:17:37;5.63;;;2.47;;
15449;SDS011;7826;49.784;9.934;2023-09-19T11:30:34;5.40;;;2.07;;
15449;SDS011;7826;49.784;9.934;2023-09-19T11:36:16;3.70;;;1.90;;
15449;SDS011;7826;49.784;9.934;2023-09-19T11:46:26;2.63;;;2.00;;
15449;SDS011;7826;49.784;9.934;2023-09-19T11:48:54;3.63;;;1.97;;
15449;SDS011;7826;49.784;9.934;2023-09-19T11:51:39;5.07;;;2.17;;
15449;SDS011;7826;49.784;9.934;2023-09-19T11:54:10;2.60;;;1.90;;
15449;SDS011;7826;49.784;9.934;2023-09-19T11:56:48;3.50;;;2.00;;
15449;SDS011;7826;49.784;9.934;2023-09-19T11:59:20;3.33;;;1.93;;
15449;SDS011;7826;49.784;9.934;2023-09-19T12:01:55;3.77;;;1.50;;
15449;SDS011;7826;49.784;9.934;2023-09-19T12:04:37;3.10;;;1.83;;
15449;SDS011;7826;49.784;9.934;2023-09-19T12:07:09;3.27;;;1.90;;
15449;SDS011;7826;49.784;9.934;2023-09-19T12:09:43;4.57;;;2.20;;
15449;SDS011;7826;49.784;9.934;2023-09-19T12:12:30;5.10;;;1.80;;
15449;SDS011;7826;49.784;9.934;2023-09-19T12:14:59;2.50;;;1.90;;
15449;SDS011;7826;49.784;9.934;2023-09-19T12:17:35;5.13;;;2.00;;
15449;SDS011;7826;49.784;9.934;2023-09-19T12:20:09;3.27;;;1.70;;
15449;SDS011;7826;49.784;9.934;2023-09-19T12:22:43;3.43;;;2.00;;
15449;SDS011;7826;49.784;9.934;2023-09-19T12:25:10;3.80;;;1.93;;
15449;SDS011;7826;49.784;9.934;2023-09-19T12:27:41;3.43;;;1.53;;
15449;SDS011;7826;49.784;9.934;2023-09-19T12:30:26;5.07;;;1.90;;
15449;SDS011;7826;49.784;9.934;2023-09-19T12:32:54;6.30;;;2.20;;
15449;SDS011;7826;49.784;9.934;2023-09-19T12:35:31;3.13;;;1.70;;
15449;SDS011;7826;49.784;9.934;2023-09-19T12:38:00;8.80;;;2.07;;
15449;SDS011;7826;49.784;9.934;2023-09-19T12:40:29;4.10;;;1.97;;
15449;SDS011;7826;49.784;9.934;2023-09-19T12:42:59;3.63;;;1.80;;
15449;SDS011;7826;49.784;9.934;2023-09-19T12:45:29;4.57;;;1.90;;
15449;SDS011;7826;49.784;9.934;2023-09-19T12:51:07;4.10;;;1.80;;
15449;SDS011;7826;49.784;9.934;2023-09-19T12:53:41;4.63;;;2.20;;
15449;SDS011;7826;49.784;9.934;2023-09-19T12:56:16;4.43;;;1.90;;
15449;SDS011;7826;49.784;9.934;2023-09-19T12:58:56;5.20;;;2.10;;
15449;SDS011;7826;49.784;9.934;2023-09-19T13:01:29;7.90;;;2.33;;
15449;SDS011;7826;49.784;9.934;2023-09-19T13:06:49;3.67;;;1.63;;
15449;SDS011;7826;49.784;9.934;2023-09-19T13:09:20;3.70;;;2.10;;
15449;SDS011;7826;49.784;9.934;2023-09-19T13:11:48;6.87;;;2.00;;
15449;SDS011;7826;49.784;9.934;2023-09-19T13:17:02;2.73;;;1.70;;
15449;SDS011;7826;49.784;9.934;2023-09-19T13:22:44;3.87;;;1.70;;
15449;SDS011;7826;49.784;9.934;2023-09-19T13:25:40;2.10;;;1.70;;
15449;SDS011;7826;49.784;9.934;2023-09-19T13:28:07;5.83;;;2.20;;
15449;SDS011;7826;49.784;9.934;2023-09-19T13:30:33;3.50;;;2.20;;
15449;SDS011;7826;49.784;9.934;2023-09-19T13:33:08;4.37;;;2.00;;
15449;SDS011;7826;49.784;9.934;2023-09-19T13:35:36;3.80;;;1.93;;
15449;SDS011;7826;49.784;9.934;2023-09-19T13:38:05;4.57;;;1.70;;
15449;SDS011;7826;49.784;9.934;2023-09-19T13:40:35;4.57;;;2.27;;
15449;SDS011;7826;49.784;9.934;2023-09-19T13:43:03;4.53;;;2.13;;
15449;SDS011;7826;49.784;9.934;2023-09-19T13:45:29;5.00;;;1.73;;
15449;SDS011;7826;49.784;9.934;2023-09-19T13:47:56;4.83;;;2.20;;
15449;SDS011;7826;49.784;9.934;2023-09-19T13:50:24;4.90;;;2.10;;
15449;SDS011;7826;49.784;9.934;2023-09-19T13:52:54;5.07;;;2.63;;
15449;SDS011;7826;49.784;9.934;2023-09-19T13:55:21;4.63;;;2.20;;
15449;SDS011;7826;49.784;9.934;2023-09-19T13:57:48;8.20;;;2.20;;
15449;SDS011;7826;49.784;9.934;2023-09-19T14:00:16;2.50;;;1.80;;
15449;SDS011;7826;49.784;9.934;2023-09-19T14:02:44;6.30;;;2.33;;
15449;SDS011;7826;49.784;9.934;2023-09-19T14:05:12;4.23;;;1.87;;
15449;SDS011;7826;49.784;9.934;2023-09-19T14:07:41;3.13;;;2.30;;
15449;SDS011;7826;49.784;9.934;2023-09-19T14:10:09;3.10;;;1.90;;
15449;SDS011;7826;49.784;9.934;2023-09-19T14:12:37;2.50;;;2.10;;
15449;SDS011;7826;49.784;9.934;2023-09-19T14:15:07;3.03;;;2.00;;
15449;SDS011;7826;49.784;9.934;2023-09-19T14:17:34;5.53;;;2.13;;
15449;SDS011;7826;49.784;9.934;2023-09-19T14:20:01;3.57;;;1.70;;
15449;SDS011;7826;49.784;9.934;2023-09-19T14:22:28;5.10;;;2.17;;
15449;SDS011;7826;49.784;9.934;2023-09-19T14:24:54;6.33;;;2.20;;
15449;SDS011;7826;49.784;9.934;2023-09-19T14:27:21;7.03;;;2.60;;
15449;SDS011;7826;49.784;9.934;2023-09-19T14:29:48;5.57;;;1.87;;
15449;SDS011;7826;49.784;9.934;2023-09-19T14:32:14;2.73;;;2.00;;
15449;SDS011;7826;49.784;9.934;2023-09-19T14:34:41;3.67;;;2.13;;
15449;SDS011;7826;49.784;9.934;2023-09-19T14:37:08;6.77;;;2.60;;
15449;SDS011;7826;49.784;9.934;2023-09-19T14:39:37;6.70;;;1.90;;
15449;SDS011;7826;49.784;9.934;2023-09-19T14:42:06;3.70;;;2.20;;
15449;SDS011;7826;49.784;9.934;2023-09-19T14:44:36;3.33;;;2.00;;
15449;SDS011;7826;49.784;9.934;2023-09-19T14:47:06;4.90;;;2.43;;
15449;SDS011;7826;49.784;9.934;2023-09-19T14:49:33;2.20;;;1.80;;
15449;SDS011;7826;49.784;9.934;2023-09-19T14:52:00;8.63;;;2.50;;
15449;SDS011;7826;49.784;9.934;2023-09-19T14:54:30;3.70;;;2.07;;
15449;SDS011;7826;49.784;9.934;2023-09-19T14:56:56;4.13;;;2.10;;
15449;SDS011;7826;49.784;9.934;2023-09-19T14:59:33;5.00;;;2.13;;
15449;SDS011;7826;49.784;9.934;2023-09-19T15:02:06;5.17;;;2.20;;
15449;SDS011;7826;49.784;9.934;2023-09-19T15:04:33;5.67;;;2.80;;
15449;SDS011;7826;49.784;9.934;2023-09-19T15:06:59;3.97;;;2.53;;
15449;SDS011;7826;49.784;9.934;2023-09-19T15:09:26;7.10;;;2.60;;
15449;SDS011;7826;49.784;9.934;2023-09-19T15:11:53;6.17;;;2.50;;
15449;SDS011;7826;49.784;9.934;2023-09-19T15:14:20;8.30;;;2.60;;
15449;SDS011;7826;49.784;9.934;2023-09-19T15:16:50;4.60;;;2.60;;
15449;SDS011;7826;49.784;9.934;2023-09-19T15:19:17;4.67;;;2.40;;
15449;SDS011;7826;49.784;9.934;2023-09-19T15:21:45;3.90;;;2.40;;
15449;SDS011;7826;49.784;9.934;2023-09-19T15:24:11;5.53;;;2.37;;
15449;SDS011;7826;49.784;9.934;2023-09-19T15:26:38;5.90;;;2.47;;
15449;SDS011;7826;49.784;9.934;2023-09-19T15:29:09;4.93;;;2.30;;
15449;SDS011;7826;49.784;9.934;2023-09-19T15:31:36;4.57;;;2.10;;
15449;SDS011;7826;49.784;9.934;2023-09-19T15:34:04;6.70;;;2.70;;
15449;SDS011;7826;49.784;9.934;2023-09-19T15:36:33;3.97;;;2.33;;
15449;SDS011;7826;49.784;9.934;2023-09-19T15:39:01;3.47;;;2.13;;
15449;SDS011;7826;49.784;9.934;2023-09-19T15:41:30;6.57;;;2.60;;
15449;SDS011;7826;49.784;9.934;2023-09-19T15:43:59;5.00;;;2.43;;
15449;SDS011;7826;49.784;9.934;2023-09-19T15:46:27;8.47;;;2.63;;
15449;SDS011;7826;49.784;9.934;2023-09-19T15:48:55;4.00;;;2.27;;
15449;SDS011;7826;49.784;9.934;2023-09-19T15:51:23;5.13;;;2.10;;
15449;SDS011;7826;49.784;9.934;2023-09-19T15:53:51;3.37;;;2.33;;
15449;SDS011;7826;49.784;9.934;2023-09-19T15:56:19;3.53;;;2.50;;
15449;SDS011;7826;49.784;9.934;2023-09-19T15:58:47;4.00;;;2.50;;
15449;SDS011;7826;49.784;9.934;2023-09-19T16:01:15;3.83;;;2.50;;
15449;SDS011;7826;49.784;9.934;2023-09-19T16:03:43;3.50;;;2.30;;
15449;SDS011;7826;49.784;9.934;2023-09-19T16:06:13;3.43;;;2.50;;
15449;SDS011;7826;49.784;9.934;2023-09-19T16:08:41;5.00;;;2.30;;
15449;SDS011;7826;49.784;9.934;2023-09-19T16:11:09;6.03;;;2.97;;
15449;SDS011;7826;49.784;9.934;2023-09-19T16:13:39;6.27;;;2.70;;
15449;SDS011;7826;49.784;9.934;2023-09-19T16:16:07;5.53;;;2.57;;
15449;SDS011;7826;49.784;9.934;2023-09-19T16:18:38;6.50;;;2.93;;
15449;SDS011;7826;49.784;9.934;2023-09-19T16:21:05;3.37;;;2.23;;
15449;SDS011;7826;49.784;9.934;2023-09-19T16:23:33;3.97;;;2.43;;